createdAt,value
2022-12-22T00:00:54.299Z,64.30
2022-12-22T00:06:18.833Z,64.70
2022-12-22T00:11:41.041Z,65.04
2022-12-22T00:17:02.649Z,65.27
2022-12-22T00:22:38.556Z,65.89
2022-12-22T00:28:00.211Z,65.44
2022-12-22T00:33:24.283Z,65.35
2022-12-22T00:38:47.023Z,65.23
2022-12-22T00:44:08.600Z,65.37
2022-12-22T00:49:29.719Z,65.30
2022-12-22T00:54:50.732Z,64.90
2022-12-22T01:00:14.302Z,64.50
2022-12-22T01:05:36.319Z,64.84
2022-12-22T01:10:57.890Z,65.28
2022-12-22T01:16:19.600Z,65.09
2022-12-22T01:21:40.756Z,64.88
2022-12-22T01:27:01.849Z,65.61
2022-12-22T01:32:23.395Z,65.52
2022-12-22T01:37:45.025Z,66.17
2022-12-22T01:43:06.112Z,66.82
2022-12-22T01:48:30.818Z,67.20
2022-12-22T01:53:53.483Z,67.04
2022-12-22T01:59:18.817Z,66.80
2022-12-22T02:04:45.365Z,66.93
2022-12-22T02:10:28.624Z,66.66
2022-12-22T02:15:57.448Z,66.39
2022-12-22T02:21:27.347Z,66.78
2022-12-22T02:27:00.588Z,65.83
2022-12-22T02:32:22.748Z,65.46
2022-12-22T02:38:02.298Z,65.69
2022-12-22T02:43:47.986Z,65.88
2022-12-22T02:49:11.216Z,66.62
2022-12-22T02:54:35.126Z,66.22
2022-12-22T02:59:56.360Z,66.30
2022-12-22T03:05:17.991Z,66.53
2022-12-22T03:10:39.844Z,66.24
2022-12-22T03:16:01.391Z,65.83
2022-12-22T03:21:22.645Z,65.10
2022-12-22T03:26:26.704Z,64.98
2022-12-22T03:31:29.488Z,64.79
2022-12-22T03:36:32.585Z,64.61
2022-12-22T03:41:54.111Z,64.76
2022-12-22T03:46:57.032Z,64.76
2022-12-22T03:52:00.078Z,65.09
2022-12-22T03:57:02.892Z,64.75
2022-12-22T04:02:06.988Z,64.82
2022-12-22T04:07:09.942Z,64.57
2022-12-22T04:12:31.202Z,64.52
2022-12-22T04:17:34.036Z,65.00
2022-12-22T04:22:36.867Z,64.78
2022-12-22T04:27:40.136Z,64.76
2022-12-22T04:32:42.906Z,65.10
2022-12-22T04:37:45.658Z,65.29
2022-12-22T04:42:48.480Z,65.13
2022-12-22T04:47:51.498Z,65.12
2022-12-22T04:52:54.453Z,64.99
2022-12-22T04:57:57.303Z,64.52
2022-12-22T05:03:00.282Z,64.90
2022-12-22T05:08:04.212Z,64.91
2022-12-22T05:13:07.244Z,65.66
2022-12-22T05:18:10.096Z,65.84
2022-12-22T05:23:13.014Z,65.72
2022-12-22T05:28:15.975Z,65.39
2022-12-22T05:33:19.348Z,66.24
2022-12-22T05:38:22.269Z,65.83
2022-12-22T05:43:25.287Z,65.17
2022-12-22T05:48:33.716Z,64.66
2022-12-22T05:53:40.824Z,65.33
2022-12-22T05:58:43.629Z,64.94
2022-12-22T06:03:46.559Z,64.93
2022-12-22T06:08:49.480Z,65.31
2022-12-22T06:13:52.281Z,65.71
2022-12-22T06:18:55.597Z,65.57
2022-12-22T06:23:58.442Z,66.10
2022-12-22T06:29:01.289Z,65.80
2022-12-22T06:34:04.175Z,65.54
2022-12-22T06:39:07.251Z,65.92
2022-12-22T06:44:10.125Z,66.35
2022-12-22T06:49:13.019Z,66.25
2022-12-22T06:54:19.483Z,65.59
2022-12-22T06:59:25.145Z,65.65
2022-12-22T07:04:29.780Z,65.33
2022-12-22T07:09:32.602Z,65.26
2022-12-22T07:14:35.488Z,65.29
2022-12-22T07:19:38.962Z,65.90
2022-12-22T07:24:42.198Z,66.14
2022-12-22T07:29:46.133Z,65.89
2022-12-22T07:34:49.503Z,65.47
2022-12-22T07:39:52.265Z,65.25
2022-12-22T07:44:55.078Z,65.25
2022-12-22T07:50:16.559Z,65.28
2022-12-22T07:55:19.947Z,65.49
2022-12-22T08:00:24.251Z,66.11
2022-12-22T08:05:27.108Z,66.56
2022-12-22T08:10:30.213Z,66.90
2022-12-22T08:15:33.038Z,66.48
2022-12-22T08:20:36.028Z,65.83
2022-12-22T08:25:40.388Z,65.20
2022-12-22T08:30:43.645Z,64.34
2022-12-22T08:35:46.533Z,64.04
2022-12-22T08:40:50.033Z,64.66
2022-12-22T08:45:52.955Z,64.46
2022-12-22T08:50:55.758Z,66.96
2022-12-22T08:55:58.692Z,65.95
2022-12-22T09:01:01.552Z,65.07
2022-12-22T09:06:04.528Z,65.05
2022-12-22T09:11:07.428Z,65.02
2022-12-22T09:16:10.776Z,64.18
2022-12-22T09:21:13.667Z,64.49
2022-12-22T09:26:19.337Z,65.53
2022-12-22T09:31:23.714Z,65.59
2022-12-22T09:36:29.581Z,66.08
2022-12-22T09:41:37.513Z,65.88
2022-12-22T09:46:40.738Z,65.41
2022-12-22T09:51:49.572Z,65.00
2022-12-22T09:56:52.449Z,64.89
2022-12-22T10:02:33.117Z,64.26
2022-12-22T10:07:40.224Z,65.09
2022-12-22T10:12:43.135Z,64.93
2022-12-22T10:17:46.253Z,64.86
2022-12-22T10:23:02.002Z,64.59
2022-12-22T10:28:13.123Z,64.80
2022-12-22T10:33:18.475Z,64.37
2022-12-22T10:38:29.809Z,64.46
2022-12-22T10:43:39.067Z,65.13
2022-12-22T10:48:41.988Z,64.96
2022-12-22T10:53:56.875Z,64.49
2022-12-22T10:59:02.552Z,63.45
2022-12-22T11:04:26.028Z,63.37
2022-12-22T11:09:34.204Z,63.54
2022-12-22T11:14:56.467Z,63.24
2022-12-22T11:20:17.717Z,63.28
2022-12-22T11:25:36.084Z,62.87
2022-12-22T11:30:52.325Z,62.86
2022-12-22T11:36:01.845Z,63.11
2022-12-22T11:41:34.989Z,63.30
2022-12-22T11:47:03.374Z,63.64
2022-12-22T11:52:48.348Z,63.55
2022-12-22T11:57:54.121Z,63.36
2022-12-22T12:03:27.051Z,62.77
2022-12-22T12:08:51.419Z,61.21
2022-12-22T12:14:16.516Z,61.11
2022-12-22T12:20:03.499Z,61.02
2022-12-22T12:25:31.591Z,61.60
2022-12-22T12:30:48.889Z,61.12
2022-12-22T12:36:02.142Z,61.31
2022-12-22T12:41:10.869Z,61.88
2022-12-22T12:46:50.739Z,62.61
2022-12-22T12:51:54.657Z,62.35
2022-12-22T12:57:00.631Z,61.80
2022-12-22T13:02:03.604Z,62.06
2022-12-22T13:07:06.596Z,60.03
2022-12-22T13:12:49.770Z,59.39
2022-12-22T13:17:52.752Z,62.18
2022-12-22T13:22:57.754Z,65.68
2022-12-22T13:28:00.724Z,63.83
2022-12-22T13:33:03.702Z,63.33
2022-12-22T13:38:07.024Z,62.79
2022-12-22T13:43:16.815Z,63.20
2022-12-22T13:48:21.363Z,62.94
2022-12-22T13:54:07.070Z,63.27
2022-12-22T13:59:02.956Z,64.02
2022-12-22T14:04:07.984Z,64.81
2022-12-22T14:09:19.706Z,63.71
2022-12-22T14:14:35.216Z,63.79
2022-12-22T14:19:38.596Z,63.76
2022-12-22T14:24:48.377Z,63.64
2022-12-22T14:29:51.159Z,62.92
2022-12-22T14:34:54.508Z,63.30
2022-12-22T14:39:57.467Z,62.62
2022-12-22T14:45:00.336Z,62.22
2022-12-22T14:50:17.444Z,62.22
2022-12-22T14:55:30.114Z,62.33
2022-12-22T15:00:39.657Z,62.13
2022-12-22T15:05:44.682Z,61.94
2022-12-22T15:10:47.574Z,62.21
2022-12-22T15:15:52.305Z,62.51
2022-12-22T15:20:56.947Z,62.99
2022-12-22T15:25:59.766Z,63.34
2022-12-22T15:31:04.158Z,63.88
2022-12-22T15:36:11.331Z,63.25
2022-12-22T15:41:14.133Z,63.12
2022-12-22T15:46:18.830Z,63.66
2022-12-22T15:51:25.651Z,63.84
2022-12-22T15:56:32.219Z,63.63
2022-12-22T16:01:35.166Z,63.82
2022-12-22T16:06:38.780Z,64.29
2022-12-22T16:11:41.674Z,64.51
2022-12-22T16:16:44.532Z,64.89
2022-12-22T16:21:50.114Z,65.00
2022-12-22T16:26:53.138Z,64.96
2022-12-22T16:32:17.638Z,65.89
2022-12-22T16:37:21.025Z,65.50
2022-12-22T16:47:44.813Z,65.36
2022-12-22T16:52:49.661Z,66.11
2022-12-22T16:57:52.865Z,66.59
2022-12-22T17:02:59.603Z,66.15
2022-12-22T17:08:05.938Z,66.37
2022-12-22T17:13:09.735Z,66.07
2022-12-22T17:18:21.371Z,66.34
2022-12-22T17:23:39.484Z,67.01
2022-12-22T17:28:43.628Z,66.88
2022-12-22T17:33:47.524Z,66.88
2022-12-22T17:38:50.328Z,67.08
2022-12-22T17:43:53.195Z,67.69
2022-12-22T17:48:56.044Z,67.71
2022-12-22T17:53:59.362Z,67.79
2022-12-22T17:59:02.155Z,67.64
2022-12-22T18:04:05.615Z,67.39
2022-12-22T18:09:19.010Z,67.44
2022-12-22T18:14:22.850Z,67.63
2022-12-22T18:19:26.135Z,67.67
2022-12-22T18:24:28.956Z,67.14
2022-12-22T18:29:31.768Z,67.37
2022-12-22T18:34:35.469Z,67.98
2022-12-22T18:39:38.321Z,67.75
2022-12-22T18:44:41.119Z,68.53
2022-12-22T18:49:44.852Z,68.99
2022-12-22T18:54:48.199Z,69.06
2022-12-22T18:59:51.018Z,69.09
2022-12-22T19:04:55.390Z,68.71
2022-12-22T19:09:58.311Z,68.24
2022-12-22T19:15:06.078Z,68.52
2022-12-22T19:20:16.400Z,68.59
2022-12-22T19:25:23.229Z,68.47
2022-12-22T19:30:29.331Z,68.30
2022-12-22T19:35:32.782Z,68.49
2022-12-22T19:40:35.691Z,68.67
2022-12-22T19:45:38.675Z,68.77
2022-12-22T19:50:41.512Z,69.08
2022-12-22T19:55:48.841Z,69.33
2022-12-22T20:00:52.723Z,68.88
2022-12-22T20:05:55.624Z,69.32
2022-12-22T20:11:00.055Z,69.50
2022-12-22T20:16:04.766Z,69.46
2022-12-22T20:21:13.091Z,69.33
2022-12-22T20:26:20.963Z,69.65
2022-12-22T20:31:24.739Z,69.53
2022-12-22T20:36:31.981Z,69.66
2022-12-22T20:41:35.256Z,69.68
2022-12-22T20:46:39.899Z,69.56
2022-12-22T20:51:42.870Z,69.67
2022-12-22T20:56:45.863Z,69.84
2022-12-22T21:01:51.542Z,70.53
2022-12-22T21:06:56.088Z,69.83
2022-12-22T21:11:58.848Z,69.77
2022-12-22T21:17:01.658Z,69.81
2022-12-22T21:22:04.860Z,69.68
2022-12-22T21:27:18.158Z,69.66
2022-12-22T21:32:20.962Z,69.40
2022-12-22T21:37:23.911Z,69.68
2022-12-22T21:42:27.362Z,69.22
2022-12-22T21:47:30.200Z,69.46
2022-12-22T21:52:33.978Z,69.37
2022-12-22T21:57:36.805Z,69.57
2022-12-22T22:02:39.730Z,69.44
2022-12-22T22:07:42.698Z,69.59
2022-12-22T22:12:46.406Z,69.22
2022-12-22T22:17:49.675Z,69.11
2022-12-22T22:22:54.219Z,68.81
2022-12-22T22:28:00.114Z,69.01
2022-12-22T22:33:03.000Z,69.33
2022-12-22T22:38:05.813Z,69.75
2022-12-22T22:43:08.724Z,70.63
2022-12-22T22:48:19.338Z,68.55
2022-12-22T22:53:22.203Z,67.23
2022-12-22T22:58:25.005Z,65.98
2022-12-22T23:03:27.914Z,66.58
2022-12-22T23:08:31.083Z,65.15
2022-12-22T23:13:33.931Z,64.52
2022-12-22T23:18:37.080Z,63.95
2022-12-22T23:23:40.535Z,63.99
2022-12-22T23:28:43.284Z,63.91
2022-12-22T23:33:46.099Z,63.83
2022-12-22T23:38:51.071Z,63.81
2022-12-22T23:43:55.135Z,64.31
2022-12-22T23:48:58.846Z,64.62
2022-12-22T23:54:01.719Z,65.10
2022-12-22T23:59:04.515Z,65.78
